sensor_id;sensor_type;location;lat;lon;timestamp;pressure;altitude;pressure_sealevel;temperature;humidity
60099;BME280;62818;49.394;8.686;2023-03-14T00:00:42;98643.41;;;11.36;100.00
60099;BME280;62818;49.394;8.686;2023-03-14T00:01:44;98646.06;;;11.36;100.00
60099;BME280;62818;49.394;8.686;2023-03-14T00:02:45;98641.56;;;11.36;100.00
60099;BME280;62818;49.394;8.686;2023-03-14T00:03:46;98639.59;;;11.32;100.00
60099;BME280;62818;49.394;8.686;2023-03-14T00:04:47;98640.84;;;11.29;100.00
60099;BME280;62818;49.394;8.686;2023-03-14T00:05:47;98645.25;;;11.35;100.00
60099;BME280;62818;49.394;8.686;2023-03-14T00:06:48;98650.84;;;11.27;100.00
60099;BME280;62818;49.394;8.686;2023-03-14T00:07:49;98650.28;;;11.25;100.00
60099;BME280;62818;49.394;8.686;2023-03-14T00:08:50;98656.59;;;11.24;100.00
60099;BME280;62818;49.394;8.686;2023-03-14T00:09:52;98651.88;;;11.26;100.00
60099;BME280;62818;49.394;8.686;2023-03-14T00:10:52;98646.88;;;11.36;100.00
60099;BME280;62818;49.394;8.686;2023-03-14T00:11:53;98646.88;;;11.36;100.00
60099;BME280;62818;49.394;8.686;2023-03-14T00:12:54;98645.47;;;11.34;100.00
60099;BME280;62818;49.394;8.686;2023-03-14T00:13:55;98641.19;;;11.33;100.00
60099;BME280;62818;49.394;8.686;2023-03-14T00:14:55;98651.00;;;11.32;100.00
60099;BME280;62818;49.394;8.686;2023-03-14T00:16:04;98640.75;;;11.36;100.00
60099;BME280;62818;49.394;8.686;2023-03-14T00:17:09;98635.09;;;11.32;100.00
60099;BME280;62818;49.394;8.686;2023-03-14T00:18:10;98643.50;;;11.29;100.00
60099;BME280;62818;49.394;8.686;2023-03-14T00:19:11;98641.78;;;11.35;100.00
60099;BME280;62818;49.394;8.686;2023-03-14T00:20:12;98637.00;;;11.43;100.00
60099;BME280;62818;49.394;8.686;2023-03-14T00:21:13;98639.78;;;11.48;100.00
60099;BME280;62818;49.394;8.686;2023-03-14T00:22:14;98649.66;;;11.41;100.00
60099;BME280;62818;49.394;8.686;2023-03-14T00:23:14;98650.13;;;11.38;100.00
60099;BME280;62818;49.394;8.686;2023-03-14T00:24:15;98643.91;;;11.44;100.00
60099;BME280;62818;49.394;8.686;2023-03-14T00:25:16;98648.78;;;11.47;100.00
60099;BME280;62818;49.394;8.686;2023-03-14T00:26:18;98645.72;;;11.32;100.00
60099;BME280;62818;49.394;8.686;2023-03-14T00:27:20;98646.06;;;11.36;100.00
60099;BME280;62818;49.394;8.686;2023-03-14T00:28:21;98646.41;;;11.39;100.00
60099;BME280;62818;49.394;8.686;2023-03-14T00:29:21;98635.81;;;11.39;100.00
60099;BME280;62818;49.394;8.686;2023-03-14T00:30:22;98630.06;;;11.42;100.00
60099;BME280;62818;49.394;8.686;2023-03-14T00:31:23;98637.88;;;11.37;100.00
60099;BME280;62818;49.394;8.686;2023-03-14T00:32:23;98633.03;;;11.34;100.00
60099;BME280;62818;49.394;8.686;2023-03-14T00:33:24;98624.19;;;11.40;100.00
60099;BME280;62818;49.394;8.686;2023-03-14T00:34:29;98632.72;;;11.42;100.00
60099;BME280;62818;49.394;8.686;2023-03-14T00:35:30;98627.25;;;11.37;100.00
60099;BME280;62818;49.394;8.686;2023-03-14T00:36:30;98623.00;;;11.36;100.00
60099;BME280;62818;49.394;8.686;2023-03-14T00:37:31;98623.94;;;11.42;100.00
60099;BME280;62818;49.394;8.686;2023-03-14T00:38:32;98620.69;;;11.40;100.00
60099;BME280;62818;49.394;8.686;2023-03-14T00:39:33;98617.38;;;11.44;100.00
60099;BME280;62818;49.394;8.686;2023-03-14T00:40:34;98604.69;;;11.46;100.00
60099;BME280;62818;49.394;8.686;2023-03-14T00:41:38;98605.75;;;11.45;100.00
60099;BME280;62818;49.394;8.686;2023-03-14T00:42:39;98612.06;;;11.44;100.00
60099;BME280;62818;49.394;8.686;2023-03-14T00:43:40;98617.72;;;11.48;100.00
60099;BME280;62818;49.394;8.686;2023-03-14T00:44:40;98626.50;;;11.48;100.00
60099;BME280;62818;49.394;8.686;2023-03-14T00:45:41;98618.19;;;11.45;100.00
60099;BME280;62818;49.394;8.686;2023-03-14T00:46:42;98618.53;;;11.37;100.00
60099;BME280;62818;49.394;8.686;2023-03-14T00:47:42;98626.00;;;11.40;100.00
60099;BME280;62818;49.394;8.686;2023-03-14T00:48:45;98619.88;;;11.39;100.00
60099;BME280;62818;49.394;8.686;2023-03-14T00:49:46;98620.84;;;11.45;100.00
60099;BME280;62818;49.394;8.686;2023-03-14T00:50:47;98621.66;;;11.45;100.00
60099;BME280;62818;49.394;8.686;2023-03-14T00:51:48;98621.19;;;11.48;100.00
60099;BME280;62818;49.394;8.686;2023-03-14T00:52:48;98615.03;;;11.54;100.00
60099;BME280;62818;49.394;8.686;2023-03-14T00:53:49;98610.59;;;11.48;100.00
60099;BME280;62818;49.394;8.686;2023-03-14T00:54:50;98613.25;;;11.48;100.00
60099;BME280;62818;49.394;8.686;2023-03-14T00:55:51;98616.94;;;11.47;100.00
60099;BME280;62818;49.394;8.686;2023-03-14T00:56:52;98612.00;;;11.51;100.00
60099;BME280;62818;49.394;8.686;2023-03-14T00:57:52;98612.56;;;11.53;100.00
60099;BME280;62818;49.394;8.686;2023-03-14T00:58:54;98612.81;;;11.51;100.00
60099;BME280;62818;49.394;8.686;2023-03-14T00:59:56;98608.75;;;11.49;100.00
60099;BME280;62818;49.394;8.686;2023-03-14T01:00:57;98620.09;;;11.56;100.00
60099;BME280;62818;49.394;8.686;2023-03-14T01:01:58;98621.50;;;11.58;100.00
60099;BME280;62818;49.394;8.686;2023-03-14T01:02:58;98616.03;;;11.53;100.00
60099;BME280;62818;49.394;8.686;2023-03-14T01:04:00;98626.22;;;11.56;100.00
60099;BME280;62818;49.394;8.686;2023-03-14T01:05:01;98627.91;;;11.51;100.00
60099;BME280;62818;49.394;8.686;2023-03-14T01:06:16;98629.53;;;11.52;100.00
60099;BME280;62818;49.394;8.686;2023-03-14T01:07:18;98628.28;;;11.54;100.00
60099;BME280;62818;49.394;8.686;2023-03-14T01:08:19;98616.28;;;11.52;100.00
60099;BME280;62818;49.394;8.686;2023-03-14T01:09:20;98619.28;;;11.55;100.00
60099;BME280;62818;49.394;8.686;2023-03-14T01:10:20;98621.94;;;11.55;100.00
60099;BME280;62818;49.394;8.686;2023-03-14T01:11:27;98607.41;;;11.58;100.00
60099;BME280;62818;49.394;8.686;2023-03-14T01:12:29;98623.41;;;11.51;100.00
60099;BME280;62818;49.394;8.686;2023-03-14T01:13:30;98632.41;;;11.50;100.00
60099;BME280;62818;49.394;8.686;2023-03-14T01:14:30;98630.63;;;11.62;100.00
60099;BME280;62818;49.394;8.686;2023-03-14T01:15:35;98626.22;;;11.56;100.00
60099;BME280;62818;49.394;8.686;2023-03-14T01:16:37;98626.06;;;11.51;100.00
60099;BME280;62818;49.394;8.686;2023-03-14T01:17:37;98624.59;;;11.55;100.00
60099;BME280;62818;49.394;8.686;2023-03-14T01:18:41;98617.28;;;11.51;100.00
60099;BME280;62818;49.394;8.686;2023-03-14T01:19:43;98609.09;;;11.52;100.00
60099;BME280;62818;49.394;8.686;2023-03-14T01:20:44;98607.50;;;11.51;100.00
60099;BME280;62818;49.394;8.686;2023-03-14T01:21:45;98604.63;;;11.53;100.00
60099;BME280;62818;49.394;8.686;2023-03-14T01:22:45;98607.50;;;11.51;100.00
60099;BME280;62818;49.394;8.686;2023-03-14T01:23:46;98609.72;;;11.54;100.00
60099;BME280;62818;49.394;8.686;2023-03-14T01:24:48;98609.91;;;11.53;100.00
60099;BME280;62818;49.394;8.686;2023-03-14T01:25:48;98600.56;;;11.50;100.00
60099;BME280;62818;49.394;8.686;2023-03-14T01:26:49;98599.31;;;11.53;100.00
60099;BME280;62818;49.394;8.686;2023-03-14T01:27:50;98609.00;;;11.59;100.00
60099;BME280;62818;49.394;8.686;2023-03-14T01:28:52;98604.53;;;11.59;100.00
60099;BME280;62818;49.394;8.686;2023-03-14T01:29:54;98608.22;;;11.58;100.00
60099;BME280;62818;49.394;8.686;2023-03-14T01:30:55;98597.81;;;11.57;100.00
60099;BME280;62818;49.394;8.686;2023-03-14T01:31:56;98597.31;;;11.48;100.00
60099;BME280;62818;49.394;8.686;2023-03-14T01:32:56;98596.75;;;11.46;100.00
60099;BME280;62818;49.394;8.686;2023-03-14T01:33:57;98591.91;;;11.43;100.00
60099;BME280;62818;49.394;8.686;2023-03-14T01:34:58;98586.13;;;11.46;100.00
60099;BME280;62818;49.394;8.686;2023-03-14T01:35:59;98595.34;;;11.44;100.00
60099;BME280;62818;49.394;8.686;2023-03-14T01:37:02;98595.00;;;11.40;100.00
60099;BME280;62818;49.394;8.686;2023-03-14T01:38:03;98587.47;;;11.37;100.00
60099;BME280;62818;49.394;8.686;2023-03-14T01:39:03;98573.78;;;11.40;100.00
60099;BME280;62818;49.394;8.686;2023-03-14T01:40:06;98584.72;;;11.44;100.00
60099;BME280;62818;49.394;8.686;2023-03-14T01:41:17;98579.91;;;11.41;100.00
60099;BME280;62818;49.394;8.686;2023-03-14T01:42:20;98581.97;;;11.39;100.00
60099;BME280;62818;49.394;8.686;2023-03-14T01:43:22;98578.72;;;11.37;100.00
60099;BME280;62818;49.394;8.686;2023-03-14T01:44:24;98575.84;;;11.38;100.00
60099;BME280;62818;49.394;8.686;2023-03-14T01:47:06;98569.38;;;11.34;100.00
60099;BME280;62818;49.394;8.686;2023-03-14T01:48:06;98577.63;;;11.26;100.00
60099;BME280;62818;49.394;8.686;2023-03-14T01:49:31;98567.75;;;11.33;100.00
60099;BME280;62818;49.394;8.686;2023-03-14T01:50:36;98571.44;;;11.32;100.00
60099;BME280;62818;49.394;8.686;2023-03-14T01:51:47;98559.06;;;11.26;100.00
60099;BME280;62818;49.394;8.686;2023-03-14T01:52:49;98560.00;;;11.32;100.00
60099;BME280;62818;49.394;8.686;2023-03-14T01:53:55;98556.78;;;11.30;100.00
60099;BME280;62818;49.394;8.686;2023-03-14T01:55:15;98554.72;;;11.32;100.00
60099;BME280;62818;49.394;8.686;2023-03-14T01:56:20;98548.94;;;11.35;100.00
60099;BME280;62818;49.394;8.686;2023-03-14T01:57:41;98545.63;;;11.39;100.00
60099;BME280;62818;49.394;8.686;2023-03-14T01:58:48;98545.63;;;11.39;100.00
60099;BME280;62818;49.394;8.686;2023-03-14T02:00:03;98539.06;;;11.42;100.00
60099;BME280;62818;49.394;8.686;2023-03-14T02:01:18;98543.09;;;11.44;100.00
60099;BME280;62818;49.394;8.686;2023-03-14T02:02:24;98539.53;;;11.39;100.00
60099;BME280;62818;49.394;8.686;2023-03-14T02:03:29;98535.59;;;11.41;100.00
60099;BME280;62818;49.394;8.686;2023-03-14T02:04:35;98533.41;;;11.38;100.00
60099;BME280;62818;49.394;8.686;2023-03-14T02:05:40;98533.41;;;11.38;100.00
60099;BME280;62818;49.394;8.686;2023-03-14T02:08:35;98524.47;;;11.33;100.00
60099;BME280;62818;49.394;8.686;2023-03-14T02:09:39;98529.78;;;11.33;100.00
60099;BME280;62818;49.394;8.686;2023-03-14T02:10:44;98535.91;;;11.33;100.00
60099;BME280;62818;49.394;8.686;2023-03-14T02:11:47;98526.94;;;11.34;100.00
60099;BME280;62818;49.394;8.686;2023-03-14T02:12:50;98517.34;;;11.33;100.00
60099;BME280;62818;49.394;8.686;2023-03-14T02:13:56;98526.34;;;11.32;100.00
60099;BME280;62818;49.394;8.686;2023-03-14T02:14:59;98513.88;;;11.33;100.00
60099;BME280;62818;49.394;8.686;2023-03-14T02:16:00;98521.25;;;11.31;100.00
60099;BME280;62818;49.394;8.686;2023-03-14T02:17:03;98519.84;;;11.28;100.00
60099;BME280;62818;49.394;8.686;2023-03-14T02:18:08;98527.22;;;11.26;100.00
60099;BME280;62818;49.394;8.686;2023-03-14T02:19:09;98519.50;;;11.25;100.00
60099;BME280;62818;49.394;8.686;2023-03-14T02:22:28;98516.03;;;11.24;100.00
60099;BME280;62818;49.394;8.686;2023-03-14T02:26:43;98514.44;;;11.23;100.00
60099;BME280;62818;49.394;8.686;2023-03-14T02:28:04;98530.19;;;11.18;100.00
60099;BME280;62818;49.394;8.686;2023-03-14T02:29:05;98532.41;;;11.21;100.00
60099;BME280;62818;49.394;8.686;2023-03-14T02:30:12;98531.22;;;11.17;100.00
60099;BME280;62818;49.394;8.686;2023-03-14T02:31:18;98525.34;;;11.15;100.00
60099;BME280;62818;49.394;8.686;2023-03-14T02:32:22;98510.81;;;11.17;100.00
60099;BME280;62818;49.394;8.686;2023-03-14T02:33:25;98511.19;;;11.21;100.00
60099;BME280;62818;49.394;8.686;2023-03-14T02:34:27;98514.28;;;11.18;100.00
60099;BME280;62818;49.394;8.686;2023-03-14T02:35:35;98506.34;;;11.18;100.00
60099;BME280;62818;49.394;8.686;2023-03-14T02:36:40;98521.44;;;11.17;100.00
60099;BME280;62818;49.394;8.686;2023-03-14T02:37:55;98510.63;;;11.19;100.00
60099;BME280;62818;49.394;8.686;2023-03-14T02:39:08;98517.09;;;11.23;100.00
60099;BME280;62818;49.394;8.686;2023-03-14T02:40:16;98506.34;;;11.18;100.00
60099;BME280;62818;49.394;8.686;2023-03-14T02:41:17;98495.50;;;11.19;100.00
60099;BME280;62818;49.394;8.686;2023-03-14T02:42:18;98491.25;;;11.18;100.00
60099;BME280;62818;49.394;8.686;2023-03-14T02:43:21;98488.78;;;11.17;100.00
60099;BME280;62818;49.394;8.686;2023-03-14T02:44:22;98509.22;;;11.16;100.00
60099;BME280;62818;49.394;8.686;2023-03-14T02:46:23;98504.13;;;11.15;100.00
60099;BME280;62818;49.394;8.686;2023-03-14T02:47:27;98497.66;;;11.11;100.00
60099;BME280;62818;49.394;8.686;2023-03-14T02:48:36;98499.50;;;11.10;100.00
60099;BME280;62818;49.394;8.686;2023-03-14T02:49:41;98497.50;;;11.06;100.00
60099;BME280;62818;49.394;8.686;2023-03-14T02:50:43;98502.38;;;11.09;100.00
60099;BME280;62818;49.394;8.686;2023-03-14T02:51:46;98498.69;;;11.10;100.00
60099;BME280;62818;49.394;8.686;2023-03-14T02:52:48;98501.56;;;11.08;100.00
60099;BME280;62818;49.394;8.686;2023-03-14T02:53:49;98497.50;;;11.06;100.00
60099;BME280;62818;49.394;8.686;2023-03-14T02:54:49;98506.16;;;11.01;100.00
60099;BME280;62818;49.394;8.686;2023-03-14T02:55:50;98501.66;;;11.02;100.00
60099;BME280;62818;49.394;8.686;2023-03-14T02:56:51;98504.44;;;11.07;100.00
60099;BME280;62818;49.394;8.686;2023-03-14T02:57:52;98503.41;;;11.08;100.00
60099;BME280;62818;49.394;8.686;2023-03-14T02:58:53;98500.31;;;11.11;100.00
60099;BME280;62818;49.394;8.686;2023-03-14T02:59:53;98496.72;;;11.05;100.00
60099;BME280;62818;49.394;8.686;2023-03-14T03:00:54;98492.19;;;11.06;100.00
60099;BME280;62818;49.394;8.686;2023-03-14T03:01:55;98482.16;;;10.96;100.00
60099;BME280;62818;49.394;8.686;2023-03-14T03:02:56;98487.38;;;11.03;100.00
60099;BME280;62818;49.394;8.686;2023-03-14T03:03:56;98495.19;;;10.98;100.00
60099;BME280;62818;49.394;8.686;2023-03-14T03:04:57;98474.56;;;11.00;100.00
60099;BME280;62818;49.394;8.686;2023-03-14T03:05:58;98478.53;;;10.91;100.00
60099;BME280;62818;49.394;8.686;2023-03-14T03:06:59;98465.88;;;10.93;100.00
60099;BME280;62818;49.394;8.686;2023-03-14T03:08:00;98470.38;;;10.92;100.00
60099;BME280;62818;49.394;8.686;2023-03-14T03:09:01;98477.44;;;10.98;100.00
60099;BME280;62818;49.394;8.686;2023-03-14T03:10:02;98477.06;;;10.95;100.00
60099;BME280;62818;49.394;8.686;2023-03-14T03:11:03;98491.59;;;10.92;100.00
60099;BME280;62818;49.394;8.686;2023-03-14T03:12:05;98490.53;;;10.93;100.00
60099;BME280;62818;49.394;8.686;2023-03-14T03:13:06;98489.06;;;10.97;100.00
60099;BME280;62818;49.394;8.686;2023-03-14T03:14:06;98488.72;;;10.94;100.00
60099;BME280;62818;49.394;8.686;2023-03-14T03:15:07;98485.38;;;10.98;100.00
60099;BME280;62818;49.394;8.686;2023-03-14T03:16:08;98470.72;;;10.96;100.00
60099;BME280;62818;49.394;8.686;2023-03-14T03:17:09;98467.84;;;10.97;100.00
60099;BME280;62818;49.394;8.686;2023-03-14T03:18:10;98463.81;;;10.95;100.00
60099;BME280;62818;49.394;8.686;2023-03-14T03:19:11;98454.25;;;10.94;100.00
60099;BME280;62818;49.394;8.686;2023-03-14T03:20:13;98467.94;;;10.91;100.00
60099;BME280;62818;49.394;8.686;2023-03-14T03:21:14;98463.44;;;10.91;100.00
60099;BME280;62818;49.394;8.686;2023-03-14T03:22:16;98464.28;;;10.92;100.00
60099;BME280;62818;49.394;8.686;2023-03-14T03:23:16;98464.28;;;10.92;100.00
60099;BME280;62818;49.394;8.686;2023-03-14T03:24:17;98458.16;;;10.91;100.00
60099;BME280;62818;49.394;8.686;2023-03-14T03:25:18;98454.56;;;10.86;100.00
60099;BME280;62818;49.394;8.686;2023-03-14T03:26:18;98456.16;;;10.87;100.00
60099;BME280;62818;49.394;8.686;2023-03-14T03:27:19;98454.69;;;10.91;100.00
60099;BME280;62818;49.394;8.686;2023-03-14T03:28:20;98447.78;;;10.90;100.00
60099;BME280;62818;49.394;8.686;2023-03-14T03:29:21;98446.97;;;10.89;100.00
60099;BME280;62818;49.394;8.686;2023-03-14T03:30:22;98444.31;;;10.89;100.00
60099;BME280;62818;49.394;8.686;2023-03-14T03:31:22;98436.13;;;10.91;100.00
60099;BME280;62818;49.394;8.686;2023-03-14T03:32:23;98439.59;;;10.91;100.00
60099;BME280;62818;49.394;8.686;2023-03-14T03:33:24;98439.75;;;10.96;100.00
60099;BME280;62818;49.394;8.686;2023-03-14T03:34:25;98430.81;;;10.91;100.00
60099;BME280;62818;49.394;8.686;2023-03-14T03:35:27;98424.28;;;10.93;100.00
60099;BME280;62818;49.394;8.686;2023-03-14T03:36:28;98430.41;;;10.94;100.00
60099;BME280;62818;49.394;8.686;2023-03-14T03:37:33;98427.97;;;10.92;100.00
60099;BME280;62818;49.394;8.686;2023-03-14T03:38:34;98423.47;;;10.93;100.00
60099;BME280;62818;49.394;8.686;2023-03-14T03:39:35;98423.13;;;10.89;100.00
60099;BME280;62818;49.394;8.686;2023-03-14T03:40:35;98413.75;;;10.87;100.00
60099;BME280;62818;49.394;8.686;2023-03-14T03:41:36;98418.38;;;10.91;100.00
60099;BME280;62818;49.394;8.686;2023-03-14T03:42:37;98405.94;;;10.92;100.00
60099;BME280;62818;49.394;8.686;2023-03-14T03:43:37;98410.69;;;10.90;100.00
60099;BME280;62818;49.394;8.686;2023-03-14T03:44:38;98405.38;;;10.90;100.00
60099;BME280;62818;49.394;8.686;2023-03-14T03:45:39;98407.44;;;10.88;100.00
60099;BME280;62818;49.394;8.686;2023-03-14T03:46:40;98404.22;;;10.86;100.00
60099;BME280;62818;49.394;8.686;2023-03-14T03:47:40;98406.88;;;10.86;100.00
60099;BME280;62818;49.394;8.686;2023-03-14T03:48:41;98409.72;;;10.84;100.00
60099;BME280;62818;49.394;8.686;2023-03-14T03:49:42;98400.97;;;10.84;100.00
60099;BME280;62818;49.394;8.686;2023-03-14T03:50:46;98414.22;;;10.84;100.00
60099;BME280;62818;49.394;8.686;2023-03-14T03:51:47;98409.94;;;10.83;100.00
60099;BME280;62818;49.394;8.686;2023-03-14T03:52:48;98407.66;;;10.86;100.00
60099;BME280;62818;49.394;8.686;2023-03-14T03:53:49;98413.84;;;10.80;100.00
60099;BME280;62818;49.394;8.686;2023-03-14T03:54:50;98415.84;;;10.85;100.00
60099;BME280;62818;49.394;8.686;2023-03-14T03:55:50;98408.94;;;10.84;100.00
60099;BME280;62818;49.394;8.686;2023-03-14T03:56:52;98402.59;;;10.85;100.00
60099;BME280;62818;49.394;8.686;2023-03-14T03:57:52;98411.78;;;10.82;100.00
60099;BME280;62818;49.394;8.686;2023-03-14T03:58:53;98407.63;;;10.75;100.00
60099;BME280;62818;49.394;8.686;2023-03-14T03:59:53;98403.56;;;10.72;100.00
60099;BME280;62818;49.394;8.686;2023-03-14T04:00:54;98407.31;;;10.83;100.00
60099;BME280;62818;49.394;8.686;2023-03-14T04:01:55;98403.25;;;10.80;100.00
60099;BME280;62818;49.394;8.686;2023-03-14T04:02:55;98407.31;;;10.83;100.00
60099;BME280;62818;49.394;8.686;2023-03-14T04:03:56;98410.53;;;10.85;100.00
60099;BME280;62818;49.394;8.686;2023-03-14T04:04:57;98402.44;;;10.80;100.00
60099;BME280;62818;49.394;8.686;2023-03-14T04:06:02;98398.31;;;10.84;100.00
60099;BME280;62818;49.394;8.686;2023-03-14T04:07:04;98410.53;;;10.85;100.00
60099;BME280;62818;49.394;8.686;2023-03-14T04:08:06;98414.34;;;10.89;100.00
60099;BME280;62818;49.394;8.686;2023-03-14T04:09:06;98409.63;;;10.91;100.00
60099;BME280;62818;49.394;8.686;2023-03-14T04:10:08;98414.34;;;10.89;100.00
60099;BME280;62818;49.394;8.686;2023-03-14T04:11:10;98415.59;;;10.86;100.00
60099;BME280;62818;49.394;8.686;2023-03-14T04:12:10;98410.97;;;10.82;100.00
60099;BME280;62818;49.394;8.686;2023-03-14T04:13:11;98408.94;;;10.84;100.00
60099;BME280;62818;49.394;8.686;2023-03-14T04:14:12;98411.34;;;10.85;100.00
60099;BME280;62818;49.394;8.686;2023-03-14T04:15:12;98414.81;;;10.86;100.00
60099;BME280;62818;49.394;8.686;2023-03-14T04:16:23;98412.75;;;10.88;100.00
60099;BME280;62818;49.394;8.686;2023-03-14T04:17:25;98408.47;;;10.87;100.00
60099;BME280;62818;49.394;8.686;2023-03-14T04:18:26;98405.09;;;10.80;100.00
60099;BME280;62818;49.394;8.686;2023-03-14T04:19:27;98406.56;;;10.76;100.00
60099;BME280;62818;49.394;8.686;2023-03-14T04:20:27;98410.63;;;10.78;100.00
60099;BME280;62818;49.394;8.686;2023-03-14T04:21:28;98406.94;;;10.79;100.00
60099;BME280;62818;49.394;8.686;2023-03-14T04:22:28;98407.31;;;10.83;100.00
60099;BME280;62818;49.394;8.686;2023-03-14T04:23:30;98408.03;;;10.90;100.00
60099;BME280;62818;49.394;8.686;2023-03-14T04:24:31;98396.25;;;10.86;100.00
60099;BME280;62818;49.394;8.686;2023-03-14T04:25:31;98408.47;;;10.87;100.00
60099;BME280;62818;49.394;8.686;2023-03-14T04:26:32;98402.72;;;10.90;100.00
60099;BME280;62818;49.394;8.686;2023-03-14T04:27:33;98408.47;;;10.87;100.00
60099;BME280;62818;49.394;8.686;2023-03-14T04:28:33;98395.22;;;10.87;100.00
60099;BME280;62818;49.394;8.686;2023-03-14T04:29:36;98402.25;;;10.93;100.00
60099;BME280;62818;49.394;8.686;2023-03-14T04:30:36;98400.66;;;10.92;100.00
60099;BME280;62818;49.394;8.686;2023-03-14T04:31:37;98403.75;;;10.89;100.00
60099;BME280;62818;49.394;8.686;2023-03-14T04:32:39;98400.75;;;10.85;100.00
60099;BME280;62818;49.394;8.686;2023-03-14T04:33:40;98405.38;;;10.90;100.00
60099;BME280;62818;49.394;8.686;2023-03-14T04:34:41;98399.59;;;10.93;100.00
60099;BME280;62818;49.394;8.686;2023-03-14T04:35:41;98398.00;;;10.92;100.00
60099;BME280;62818;49.394;8.686;2023-03-14T04:36:42;98406.97;;;10.91;100.00
60099;BME280;62818;49.394;8.686;2023-03-14T04:37:43;98398.00;;;10.92;100.00
60099;BME280;62818;49.394;8.686;2023-03-14T04:38:43;98387.97;;;10.94;100.00
60099;BME280;62818;49.394;8.686;2023-03-14T04:39:44;98394.19;;;10.88;100.00
60099;BME280;62818;49.394;8.686;2023-03-14T04:40:44;98382.34;;;10.90;100.00
60099;BME280;62818;49.394;8.686;2023-03-14T04:41:45;98377.56;;;10.81;100.00
60099;BME280;62818;49.394;8.686;2023-03-14T04:42:46;98387.72;;;10.84;100.00
60099;BME280;62818;49.394;8.686;2023-03-14T04:43:46;98386.81;;;10.90;100.00
60099;BME280;62818;49.394;8.686;2023-03-14T04:44:47;98389.47;;;10.90;100.00
60099;BME280;62818;49.394;8.686;2023-03-14T04:45:49;98385.66;;;10.86;100.00
60099;BME280;62818;49.394;8.686;2023-03-14T04:46:50;98380.81;;;10.83;100.00
60099;BME280;62818;49.394;8.686;2023-03-14T04:47:50;98379.06;;;10.88;100.00
60099;BME280;62818;49.394;8.686;2023-03-14T04:48:51;98376.22;;;10.90;100.00
60099;BME280;62818;49.394;8.686;2023-03-14T04:49:51;98375.06;;;10.86;100.00
60099;BME280;62818;49.394;8.686;2023-03-14T04:50:52;98378.28;;;10.88;100.00
60099;BME280;62818;49.394;8.686;2023-03-14T04:51:53;98374.00;;;10.87;100.00
60099;BME280;62818;49.394;8.686;2023-03-14T04:52:54;98374.38;;;10.90;100.00
60099;BME280;62818;49.394;8.686;2023-03-14T04:53:55;98368.47;;;10.88;99.90
60099;BME280;62818;49.394;8.686;2023-03-14T04:54:55;98372.50;;;10.91;99.51
60099;BME280;62818;49.394;8.686;2023-03-14T04:55:56;98371.34;;;10.87;99.02
60099;BME280;62818;49.394;8.686;2023-03-14T04:56:57;98366.88;;;10.87;98.92
60099;BME280;62818;49.394;8.686;2023-03-14T04:57:58;98368.94;;;10.85;99.00
60099;BME280;62818;49.394;8.686;2023-03-14T04:58:59;98367.88;;;10.86;98.99
60099;BME280;62818;49.394;8.686;2023-03-14T04:59:59;98370.19;;;10.83;99.21
60099;BME280;62818;49.394;8.686;2023-03-14T05:01:04;98365.34;;;10.80;99.03
60099;BME280;62818;49.394;8.686;2023-03-14T05:02:06;98370.44;;;10.81;99.26
60099;BME280;62818;49.394;8.686;2023-03-14T05:03:06;98375.25;;;10.84;99.21
60099;BME280;62818;49.394;8.686;2023-03-14T05:04:07;98364.66;;;10.84;98.27
60099;BME280;62818;49.394;8.686;2023-03-14T05:05:08;98376.66;;;10.87;98.08
60099;BME280;62818;49.394;8.686;2023-03-14T05:06:08;98367.69;;;10.88;97.83
60099;BME280;62818;49.394;8.686;2023-03-14T05:07:09;98374.16;;;10.92;97.38
60099;BME280;62818;49.394;8.686;2023-03-14T05:08:10;98368.13;;;10.85;97.71
60099;BME280;62818;49.394;8.686;2023-03-14T05:09:11;98362.97;;;10.90;96.94
60099;BME280;62818;49.394;8.686;2023-03-14T05:10:12;98371.94;;;10.89;96.91
60099;BME280;62818;49.394;8.686;2023-03-14T05:11:12;98365.03;;;10.88;96.86
60099;BME280;62818;49.394;8.686;2023-03-14T05:12:13;98364.47;;;10.86;96.33
60099;BME280;62818;49.394;8.686;2023-03-14T05:13:14;98371.94;;;10.89;96.28
60099;BME280;62818;49.394;8.686;2023-03-14T05:14:15;98355.44;;;10.87;96.54
60099;BME280;62818;49.394;8.686;2023-03-14T05:15:15;98369.19;;;10.84;96.29
60099;BME280;62818;49.394;8.686;2023-03-14T05:16:16;98365.47;;;10.85;96.52
60099;BME280;62818;49.394;8.686;2023-03-14T05:17:16;98367.69;;;10.88;96.75
60099;BME280;62818;49.394;8.686;2023-03-14T05:18:18;98369.88;;;10.91;96.53
60099;BME280;62818;49.394;8.686;2023-03-14T05:19:19;98366.44;;;10.90;96.14
60099;BME280;62818;49.394;8.686;2023-03-14T05:20:20;98376.22;;;10.90;96.39
60099;BME280;62818;49.394;8.686;2023-03-14T05:21:21;98380.34;;;10.86;96.11
60099;BME280;62818;49.394;8.686;2023-03-14T05:22:22;98379.78;;;10.84;95.96
60099;BME280;62818;49.394;8.686;2023-03-14T05:23:22;98378.63;;;10.91;95.64
60099;BME280;62818;49.394;8.686;2023-03-14T05:24:23;98374.97;;;10.92;95.51
60099;BME280;62818;49.394;8.686;2023-03-14T05:25:24;98381.97;;;10.87;95.46
60099;BME280;62818;49.394;8.686;2023-03-14T05:26:24;98378.28;;;10.88;95.73
60099;BME280;62818;49.394;8.686;2023-03-14T05:27:25;98373.19;;;10.86;95.66
60099;BME280;62818;49.394;8.686;2023-03-14T05:28:26;98375.63;;;10.88;96.01
60099;BME280;62818;49.394;8.686;2023-03-14T05:29:27;98364.66;;;10.84;96.30
60099;BME280;62818;49.394;8.686;2023-03-14T05:30:27;98366.53;;;10.84;95.84
60099;BME280;62818;49.394;8.686;2023-03-14T05:31:28;98366.53;;;10.84;95.22
60099;BME280;62818;49.394;8.686;2023-03-14T05:32:29;98367.31;;;10.84;94.65
60099;BME280;62818;49.394;8.686;2023-03-14T05:33:29;98372.63;;;10.84;94.61
60099;BME280;62818;49.394;8.686;2023-03-14T05:34:30;98366.53;;;10.84;94.70